sensor_id;sensor_type;location;lat;lon;timestamp;pressure;altitude;pressure_sealevel;temperature;humidity
15558;BME280;7880;50.110;9.372;2023-04-02T00:04:25;7.688922750676284;;;7.625;100.0
15558;BME280;7880;50.110;9.372;2023-04-02T00:09:30;7.658669925067807;;;7.562;100.0
15558;BME280;7880;50.110;9.372;2023-04-02T00:14:35;7.6788384743093046;;;7.562;100.0
15558;BME280;7880;50.110;9.372;2023-04-02T00:19:44;7.638501380482921;;;7.562;100.0
15558;BME280;7880;50.110;9.372;2023-04-02T00:24:51;7.668754199106479;;;7.562;100.0
15558;BME280;7880;50.110;9.372;2023-04-02T00:29:49;7.648585652193288;;;7.562;100.0
15558;BME280;7880;50.110;9.372;2023-04-02T00:34:52;7.618332840554649;;;7.5;100.0
15558;BME280;7880;50.110;9.372;2023-04-02T00:40:00;7.62337497510016;;;7.5;100.0
15558;BME280;7880;50.110;9.372;2023-04-02T00:45:18;7.709091306902701;;;7.625;100.0
15558;BME280;7880;50.110;9.372;2023-04-02T00:50:21;7.618332840554649;;;7.5;100.0
15558;BME280;7880;50.110;9.372;2023-04-02T00:55:15;7.567911511106649;;;7.5;100.0
15558;BME280;7880;50.110;9.372;2023-04-02T01:00:28;7.608248572336743;;;7.437;100.0
15558;BME280;7880;50.110;9.372;2023-04-02T01:05:21;7.688922750676284;;;7.562;100.0
15558;BME280;7880;50.110;9.372;2023-04-02T01:10:37;7.643543516192585;;;7.562;100.0
15558;BME280;7880;50.110;9.372;2023-04-02T01:15:36;7.658669925067807;;;7.562;100.0
15558;BME280;7880;50.110;9.372;2023-04-02T01:21:51;7.76959700352163;;;7.625;100.0
15558;BME280;7880;50.110;9.372;2023-04-02T01:26:42;7.835144888819196;;;7.687;100.0
15558;BME280;7880;50.110;9.372;2023-04-02T01:31:39;7.804892012570053;;;7.687;100.0
15558;BME280;7880;50.110;9.372;2023-04-02T01:36:54;7.8149763034889475;;;7.687;100.0
15558;BME280;7880;50.110;9.372;2023-04-02T01:41:58;7.830102742050076;;;7.687;100.0
15558;BME280;7880;50.110;9.372;2023-04-02T01:47:01;7.820018449384952;;;7.687;100.0
15558;BME280;7880;50.110;9.372;2023-04-02T01:52:12;7.920861428423086;;;7.75;100.0
15558;BME280;7880;50.110;9.372;2023-04-02T01:56:19;7.951114344835514;;;7.812;100.0
15558;BME280;7880;50.110;9.372;2023-04-02T02:01:26;7.910777125280584;;;7.75;100.0
15558;BME280;7880;50.110;9.372;2023-04-02T02:06:28;7.951114344835514;;;7.875;100.0
15558;BME280;7880;50.110;9.372;2023-04-02T02:11:36;7.830102742050076;;;7.75;100.0
15558;BME280;7880;50.110;9.372;2023-04-02T02:16:41;7.850271330872784;;;7.75;100.0
15558;BME280;7880;50.110;9.372;2023-04-02T02:21:47;7.734302008734085;;;7.625;100.0
15558;BME280;7880;50.110;9.372;2023-04-02T02:27:06;7.830102742050076;;;7.687;100.0
15558;BME280;7880;50.110;9.372;2023-04-02T02:31:52;7.754470575437881;;;7.625;100.0
15558;BME280;7880;50.110;9.372;2023-04-02T02:37:00;7.76959700352163;;;7.625;100.0
15558;BME280;7880;50.110;9.372;2023-04-02T02:42:03;7.719175586762139;;;7.625;100.0
15558;BME280;7880;50.110;9.372;2023-04-02T02:47:12;7.699007028207416;;;7.625;100.0
15558;BME280;7880;50.110;9.372;2023-04-02T02:52:15;7.6788384743093046;;;7.562;100.0
15558;BME280;7880;50.110;9.372;2023-04-02T02:57:19;7.6788384743093046;;;7.562;100.0
15558;BME280;7880;50.110;9.372;2023-04-02T03:02:20;7.542700857296586;;;7.5;100.0
15558;BME280;7880;50.110;9.372;2023-04-02T03:07:30;7.577995774667943;;;7.5;100.0
15558;BME280;7880;50.110;9.372;2023-04-02T03:12:37;7.59816430528299;;;7.5;100.0
15558;BME280;7880;50.110;9.372;2023-04-02T03:17:39;7.58808003939339;;;7.5;100.0
15558;BME280;7880;50.110;9.372;2023-04-02T03:22:45;7.638501380482921;;;7.5;100.0
15558;BME280;7880;50.110;9.372;2023-04-02T03:27:46;7.668754199106479;;;7.562;100.0
15558;BME280;7880;50.110;9.372;2023-04-02T03:32:48;7.628417109936708;;;7.562;100.0
15558;BME280;7880;50.110;9.372;2023-04-02T03:38:01;7.603206438664347;;;7.5;100.0
15558;BME280;7880;50.110;9.372;2023-04-02T03:43:01;7.56286937976256;;;7.5;100.0
15558;BME280;7880;50.110;9.372;2023-04-02T03:48:08;7.577995774667943;;;7.437;100.0
15558;BME280;7880;50.110;9.372;2023-04-02T03:53:07;7.492279571504332;;;7.437;100.0
15558;BME280;7880;50.110;9.372;2023-04-02T03:58:20;7.628417109936708;;;7.5;100.0
15558;BME280;7880;50.110;9.372;2023-04-02T04:03:20;7.542700857296586;;;7.437;100.0
15558;BME280;7880;50.110;9.372;2023-04-02T04:08:22;7.492279571504332;;;7.375;100.0
15558;BME280;7880;50.110;9.372;2023-04-02T04:13:45;7.502363826334476;;;7.437;100.0
15558;BME280;7880;50.110;9.372;2023-04-02T04:18:41;7.502363826334476;;;7.375;100.0
15558;BME280;7880;50.110;9.372;2023-04-02T04:23:35;7.492279571504332;;;7.375;100.0
15558;BME280;7880;50.110;9.372;2023-04-02T04:28:43;7.512448082328774;;;7.375;100.0
15558;BME280;7880;50.110;9.372;2023-04-02T04:33:44;7.477153191441903;;;7.375;100.0
15558;BME280;7880;50.110;9.372;2023-04-02T04:38:49;7.537658727407688;;;7.375;100.0
15558;BME280;7880;50.110;9.372;2023-04-02T04:43:55;7.497321698773885;;;7.375;100.0
15558;BME280;7880;50.110;9.372;2023-04-02T04:49:01;7.532616597809829;;;7.375;100.0
15558;BME280;7880;50.110;9.372;2023-04-02T04:54:00;7.567911511106649;;;7.437;100.0
15558;BME280;7880;50.110;9.372;2023-04-02T04:59:13;7.542700857296586;;;7.437;100.0
15558;BME280;7880;50.110;9.372;2023-04-02T05:04:13;7.497321698773885;;;7.375;100.0
15558;BME280;7880;50.110;9.372;2023-04-02T05:09:21;7.542700857296586;;;7.437;100.0
15558;BME280;7880;50.110;9.372;2023-04-02T05:14:22;7.532616597809829;;;7.437;100.0
15558;BME280;7880;50.110;9.372;2023-04-02T05:19:31;7.5074059541861065;;;7.437;100.0
15558;BME280;7880;50.110;9.372;2023-04-02T05:24:41;7.5578272487095095;;;7.437;100.0
15558;BME280;7880;50.110;9.372;2023-04-02T05:29:34;7.537658727407688;;;7.437;100.0
15558;BME280;7880;50.110;9.372;2023-04-02T05:34:38;7.537658727407688;;;7.437;100.0
15558;BME280;7880;50.110;9.372;2023-04-02T05:39:43;7.633459245064296;;;7.437;100.0
15558;BME280;7880;50.110;9.372;2023-04-02T05:44:55;7.5830379068851474;;;7.5;100.0
15558;BME280;7880;50.110;9.372;2023-04-02T05:54:58;7.648585652193288;;;7.562;100.0
15558;BME280;7880;50.110;9.372;2023-04-02T06:00:04;7.59816430528299;;;7.5;100.0
15558;BME280;7880;50.110;9.372;2023-04-02T06:05:06;7.547742987476522;;;7.5;100.0
15558;BME280;7880;50.110;9.372;2023-04-02T06:10:09;7.59816430528299;;;7.5;100.0
15558;BME280;7880;50.110;9.372;2023-04-02T06:15:12;7.628417109936708;;;7.5;100.0
15558;BME280;7880;50.110;9.372;2023-04-02T06:20:16;7.502363826334476;;;7.437;100.0
15558;BME280;7880;50.110;9.372;2023-04-02T06:25:22;7.441858314815908;;;7.312;100.0
15558;BME280;7880;50.110;9.372;2023-04-02T06:30:31;7.396479208680103;;;7.25;100.0
15558;BME280;7880;50.110;9.372;2023-04-02T06:35:27;7.351100126118399;;;7.187;100.0
15558;BME280;7880;50.110;9.372;2023-04-02T06:40:38;7.194794577738503;;;7.062;100.0
15558;BME280;7880;50.110;9.372;2023-04-02T06:45:39;7.386394966073567;;;7.187;100.0
15558;BME280;7880;50.110;9.372;2023-04-02T06:50:46;7.305721067130799;;;7.125;100.0
15558;BME280;7880;50.110;9.372;2023-04-02T06:55:48;7.03344720826135;;;6.937;100.0
15558;BME280;7880;50.110;9.372;2023-04-02T07:00:36;7.174626140255714;;;7.0;100.0
15558;BME280;7880;50.110;9.372;2023-04-02T07:05:37;7.487237444525817;;;7.187;100.0
15558;BME280;7880;50.110;9.372;2023-04-02T07:10:42;7.456984688766534;;;7.187;100.0
15558;BME280;7880;50.110;9.372;2023-04-02T07:15:48;7.567911511106649;;;7.312;100.0
15558;BME280;7880;50.110;9.372;2023-04-02T07:20:51;7.719175586762139;;;7.437;100.0
15558;BME280;7880;50.110;9.372;2023-04-02T07:25:56;7.3359737705031876;;;7.25;100.0
15558;BME280;7880;50.110;9.372;2023-04-02T07:31:14;7.214963019877905;;;7.125;100.0
15558;BME280;7880;50.110;9.372;2023-04-02T07:36:05;7.416647697385633;;;7.187;100.0
15558;BME280;7880;50.110;9.372;2023-04-02T07:41:12;7.381352845206857;;;7.187;100.0
15558;BME280;7880;50.110;9.372;2023-04-02T07:46:16;7.3359737705031876;;;7.125;100.0
15558;BME280;7880;50.110;9.372;2023-04-02T07:51:25;7.214963019877905;;;6.937;100.0
15558;BME280;7880;50.110;9.372;2023-04-02T07:56:29;7.230089354538359;;;7.0;100.0
15558;BME280;7880;50.110;9.372;2023-04-02T08:01:29;7.3611843646503985;;;7.125;100.0
15558;BME280;7880;50.110;9.372;2023-04-02T08:06:33;7.426731943484628;;;7.125;100.0
15558;BME280;7880;50.110;9.372;2023-04-02T08:11:39;7.270426259771921;;;7.062;100.0
15558;BME280;7880;50.110;9.372;2023-04-02T08:16:45;7.351100126118399;;;7.125;100.0
15558;BME280;7880;50.110;9.372;2023-04-02T08:21:54;7.245215691818157;;;7.0;100.0
15558;BME280;7880;50.110;9.372;2023-04-02T08:26:54;7.330931652546861;;;7.0;100.0
15558;BME280;7880;50.110;9.372;2023-04-02T08:31:59;7.124205066921422;;;6.812;100.0
15558;BME280;7880;50.110;9.372;2023-04-02T08:37:03;7.709091306902701;;;7.562;100.0
15558;BME280;7880;50.110;9.372;2023-04-02T08:42:20;7.189752467931248;;;7.0;100.0
15558;BME280;7880;50.110;9.372;2023-04-02T08:47:15;7.109078750596382;;;6.812;100.0
15558;BME280;7880;50.110;9.372;2023-04-02T08:52:20;6.882184320042143;;;6.687;100.0
15558;BME280;7880;50.110;9.372;2023-04-02T08:57:28;6.957815731409937;;;6.625;100.0
15558;BME280;7880;50.110;9.372;2023-04-02T09:02:36;6.715795445535332;;;6.437;100.0
15558;BME280;7880;50.110;9.372;2023-04-02T09:07:32;6.715795445535332;;;6.375;100.0
15558;BME280;7880;50.110;9.372;2023-04-02T09:12:36;6.710753363376716;;;6.375;100.0
15558;BME280;7880;50.110;9.372;2023-04-02T09:17:42;6.670416716585168;;;6.375;100.0
15558;BME280;7880;50.110;9.372;2023-04-02T09:22:46;6.498986175522441;;;6.25;100.0
15558;BME280;7880;50.110;9.372;2023-04-02T09:27:50;6.720837527984986;;;6.437;100.0
15558;BME280;7880;50.110;9.372;2023-04-02T09:32:54;6.362850397289731;;;6.125;100.0
15558;BME280;7880;50.110;9.372;2023-04-02T09:38:29;6.4838599674636495;;;6.25;100.0
15558;BME280;7880;50.110;9.372;2023-04-02T09:43:12;6.529238599498058;;;6.375;100.0
15558;BME280;7880;50.110;9.372;2023-04-02T09:48:20;6.710753363376716;;;6.437;100.0
15558;BME280;7880;50.110;9.372;2023-04-02T09:53:28;6.730921693757409;;;6.437;100.0
15558;BME280;7880;50.110;9.372;2023-04-02T09:58:25;6.6099117813224435;;;6.312;100.0
15558;BME280;7880;50.110;9.372;2023-04-02T10:03:34;6.680500876536826;;;6.375;100.0
15558;BME280;7880;50.110;9.372;2023-04-02T10:08:34;6.862015954736853;;;6.562;100.0
15558;BME280;7880;50.110;9.372;2023-04-02T10:13:47;6.761174198059598;;;6.5;100.0
15558;BME280;7880;50.110;9.372;2023-04-02T10:18:45;6.912436876731226;;;6.562;100.0
15558;BME280;7880;50.110;9.372;2023-04-02T10:23:49;6.92252106462256;;;6.687;100.0
15558;BME280;7880;50.110;9.372;2023-04-02T10:29:21;6.998152510914951;;;6.687;100.0
15558;BME280;7880;50.110;9.372;2023-04-02T10:34:11;6.993110412458191;;;6.75;100.0
15558;BME280;7880;50.110;9.372;2023-04-02T10:39:10;7.109078750596382;;;6.875;100.0
15558;BME280;7880;50.110;9.372;2023-04-02T10:44:23;6.983026216417784;;;6.812;100.0
15558;BME280;7880;50.110;9.372;2023-04-02T10:49:23;7.124205066921422;;;6.812;100.0
15558;BME280;7880;50.110;9.372;2023-04-02T10:54:32;7.05361561314785;;;6.75;100.0
15558;BME280;7880;50.110;9.372;2023-04-02T10:59:34;6.97294202154153;;;6.812;100.0
15558;BME280;7880;50.110;9.372;2023-04-02T11:04:37;6.983026216417784;;;6.687;100.0
15558;BME280;7880;50.110;9.372;2023-04-02T11:09:59;6.92252106462256;;;6.562;100.0
15558;BME280;7880;50.110;9.372;2023-04-02T11:15:13;6.831763415510068;;;6.562;100.0
15558;BME280;7880;50.110;9.372;2023-04-02T11:21:04;6.766216283128597;;;6.562;100.0
15558;BME280;7880;50.110;9.372;2023-04-02T11:25:45;6.977984118834138;;;6.687;100.0
15558;BME280;7880;50.110;9.372;2023-04-02T11:30:49;7.134289279259974;;;6.75;100.0
15558;BME280;7880;50.110;9.372;2023-04-02T11:35:54;7.05865771509707;;;6.812;100.0
15558;BME280;7880;50.110;9.372;2023-04-02T11:40:58;7.048573511489667;;;6.875;100.0
15558;BME280;7880;50.110;9.372;2023-04-02T11:46:04;7.0284051077673215;;;6.812;100.0
15558;BME280;7880;50.110;9.372;2023-04-02T11:51:13;7.2855526040366385;;;7.0;100.0
15558;BME280;7880;50.110;9.372;2023-04-02T11:56:28;7.144373492762679;;;6.875;100.0
15558;BME280;7880;50.110;9.372;2023-04-02T12:01:58;7.230089354538359;;;6.937;100.0
15558;BME280;7880;50.110;9.372;2023-04-02T12:06:53;6.4132710311561825;;;6.312;100.0
15558;BME280;7880;50.110;9.372;2023-04-02T12:11:50;6.498986175522441;;;6.187;100.0
15558;BME280;7880;50.110;9.372;2023-04-02T12:17:04;6.57965932940715;;;6.125;100.0
15558;BME280;7880;50.110;9.372;2023-04-02T12:21:59;6.216630723659182;;;6.0;100.0
15558;BME280;7880;50.110;9.372;2023-04-02T12:27:07;6.241840994753875;;;5.937;100.0
15558;BME280;7880;50.110;9.372;2023-04-02T12:32:19;6.317471851693699;;;6.0;100.0
15558;BME280;7880;50.110;9.372;2023-04-02T12:37:21;6.423355161421933;;;6.0;100.0
15558;BME280;7880;50.110;9.372;2023-04-02T12:42:29;6.680500876536826;;;6.312;100.0
15558;BME280;7880;50.110;9.372;2023-04-02T12:47:28;6.140999954030849;;;6.0;100.0
15558;BME280;7880;50.110;9.372;2023-04-02T12:52:32;6.549406887969235;;;6.125;100.0
15558;BME280;7880;50.110;9.372;2023-04-02T12:57:36;6.1157897120399864;;;5.937;100.0
15558;BME280;7880;50.110;9.372;2023-04-02T13:02:44;6.317471851693699;;;6.0;100.0
15558;BME280;7880;50.110;9.372;2023-04-02T13:07:46;5.939318221830763;;;5.687;100.0
15558;BME280;7880;50.110;9.372;2023-04-02T13:12:43;5.7830151996633505;;;5.562;100.0
15558;BME280;7880;50.110;9.372;2023-04-02T13:18:00;5.843519562162692;;;5.625;100.0
15558;BME280;7880;50.110;9.372;2023-04-02T13:22:52;6.0552851609478235;;;5.75;100.0
15558;BME280;7880;50.110;9.372;2023-04-02T13:27:53;5.722510879073525;;;5.437;100.0
15558;BME280;7880;50.110;9.372;2023-04-02T13:32:57;5.500662062136689;;;5.25;100.0
15558;BME280;7880;50.110;9.372;2023-04-02T13:38:10;5.591418328235159;;;5.187;100.0
15558;BME280;7880;50.110;9.372;2023-04-02T13:43:16;5.540998168761144;;;5.25;100.0
15558;BME280;7880;50.110;9.372;2023-04-02T13:48:15;5.430073920363793;;;5.062;100.0
15558;BME280;7880;50.110;9.372;2023-04-02T13:53:20;5.430073920363793;;;5.187;100.0
15558;BME280;7880;50.110;9.372;2023-04-02T13:58:21;5.667048622015864;;;5.312;100.0
15558;BME280;7880;50.110;9.372;2023-04-02T14:03:25;5.636796496645547;;;5.312;100.0
15558;BME280;7880;50.110;9.372;2023-04-02T14:08:41;5.37461184898857;;;5.062;100.0
15558;BME280;7880;50.110;9.372;2023-04-02T14:13:50;5.041840160265565;;;4.812;100.0
15558;BME280;7880;50.110;9.372;2023-04-02T14:18:52;4.774615328019718;;;4.687;100.0
15558;BME280;7880;50.110;9.372;2023-04-02T14:23:58;5.238477823097492;;;4.812;100.0
15558;BME280;7880;50.110;9.372;2023-04-02T14:28:55;5.097302020346978;;;4.75;100.0
15558;BME280;7880;50.110;9.372;2023-04-02T14:33:59;5.2888978079485245;;;4.937;100.0
15558;BME280;7880;50.110;9.372;2023-04-02T14:39:16;4.840160965919495;;;4.5;100.0
15558;BME280;7880;50.110;9.372;2023-04-02T14:44:06;4.492265450122067;;;4.312;100.0
15558;BME280;7880;50.110;9.372;2023-04-02T14:49:20;4.658650089148432;;;4.312;100.0
15558;BME280;7880;50.110;9.372;2023-04-02T14:54:26;4.789741240092553;;;4.375;100.0
15558;BME280;7880;50.110;9.372;2023-04-02T14:59:24;4.648566162609495;;;4.312;100.0
15558;BME280;7880;50.110;9.372;2023-04-02T15:04:30;4.436803974211216;;;4.25;100.0
15558;BME280;7880;50.110;9.372;2023-04-02T15:09:32;4.663692052854458;;;4.312;100.0
15558;BME280;7880;50.110;9.372;2023-04-02T15:14:38;4.855286889342824;;;4.5;100.0
15558;BME280;7880;50.110;9.372;2023-04-02T15:19:40;4.502349358616629;;;4.312;100.0
15558;BME280;7880;50.110;9.372;2023-04-02T15:24:51;4.895622697944054;;;4.562;100.0
15558;BME280;7880;50.110;9.372;2023-04-02T15:29:56;4.870412815385498;;;4.625;100.0
15558;BME280;7880;50.110;9.372;2023-04-02T15:34:58;4.6031885075906755;;;4.437;100.0
15558;BME280;7880;50.110;9.372;2023-04-02T15:40:15;4.794783211365575;;;4.5;100.0
15558;BME280;7880;50.110;9.372;2023-04-02T15:45:16;4.451929827785352;;;4.25;100.0
15558;BME280;7880;50.110;9.372;2023-04-02T15:50:25;4.310755296290154;;;4.187;100.0
15558;BME280;7880;50.110;9.372;2023-04-02T15:55:21;4.361174745630706;;;4.125;100.0
15558;BME280;7880;50.110;9.372;2023-04-02T16:00:22;4.310755296290154;;;4.0;100.0
15558;BME280;7880;50.110;9.372;2023-04-02T16:05:37;4.744363511732081;;;4.375;100.0
15558;BME280;7880;50.110;9.372;2023-04-02T16:10:32;4.583020668482641;;;4.312;100.0
15558;BME280;7880;50.110;9.372;2023-04-02T16:15:36;4.693943841202417;;;4.437;100.0
15558;BME280;7880;50.110;9.372;2023-04-02T16:20:39;4.840160965919495;;;4.5;100.0
15558;BME280;7880;50.110;9.372;2023-04-02T16:25:44;4.895622697944054;;;4.687;100.0
15558;BME280;7880;50.110;9.372;2023-04-02T16:30:51;4.814951099368045;;;4.625;100.0
15558;BME280;7880;50.110;9.372;2023-04-02T16:35:58;4.8905807208502665;;;4.562;100.0
15558;BME280;7880;50.110;9.372;2023-04-02T16:41:08;4.643524199776584;;;4.5;100.0
15558;BME280;7880;50.110;9.372;2023-04-02T16:46:02;4.567894792207516;;;4.375;100.0
15558;BME280;7880;50.110;9.372;2023-04-02T16:51:17;4.482181542791659;;;4.25;100.0
15558;BME280;7880;50.110;9.372;2023-04-02T16:56:20;4.27041975777247;;;4.125;100.0
15558;BME280;7880;50.110;9.372;2023-04-02T17:01:17;4.315797239914536;;;4.125;100.0
15558;BME280;7880;50.110;9.372;2023-04-02T17:06:26;4.098993926873663;;;3.875;100.0
15558;BME280;7880;50.110;9.372;2023-04-02T17:11:09;3.9981553599762263;;;3.875;100.0
15558;BME280;7880;50.110;9.372;2023-04-02T17:16:05;3.927568432415137;;;3.75;100.0
15558;BME280;7880;50.110;9.372;2023-04-02T17:21:05;4.194790673255921;;;4.0;100.0
15558;BME280;7880;50.110;9.372;2023-04-02T17:26:15;4.043532700673677;;;3.875;100.0
15558;BME280;7880;50.110;9.372;2023-04-02T17:31:16;3.806562403595308;;;3.687;100.0
15558;BME280;7880;50.110;9.372;2023-04-02T17:36:33;3.8872330708487426;;;3.75;100.0
15558;BME280;7880;50.110;9.372;2023-04-02T17:41:33;4.11916165422299;;;3.875;100.0
15558;BME280;7880;50.110;9.372;2023-04-02T17:46:37;3.9527780428528785;;;3.812;100.0
15558;BME280;7880;50.110;9.372;2023-04-02T17:51:39;3.957819965813542;;;3.75;100.0
15558;BME280;7880;50.110;9.372;2023-04-02T17:56:49;4.038490772765362;;;3.812;100.0
15558;BME280;7880;50.110;9.372;2023-04-02T18:01:49;4.1141197219491;;;3.875;100.0
15558;BME280;7880;50.110;9.372;2023-04-02T18:07:02;4.199832610186422;;;3.875;100.0
15558;BME280;7880;50.110;9.372;2023-04-02T18:12:01;3.7863947484234814;;;3.625;100.0
15558;BME280;7880;50.110;9.372;2023-04-02T18:17:04;3.665388915181393;;;3.437;100.0
15558;BME280;7880;50.110;9.372;2023-04-02T18:22:12;3.7561432743968908;;;3.5;100.0
15558;BME280;7880;50.110;9.372;2023-04-02T18:27:19;3.9981553599762263;;;3.812;100.0
15558;BME280;7880;50.110;9.372;2023-04-02T18:32:31;3.9981553599762263;;;3.75;100.0
15558;BME280;7880;50.110;9.372;2023-04-02T18:37:23;3.8468977279087992;;;3.625;100.0
15558;BME280;7880;50.110;9.372;2023-04-02T18:42:39;3.836813895084197;;;3.625;100.0
15558;BME280;7880;50.110;9.372;2023-04-02T18:47:38;3.5998441588366403;;;3.5;100.0
15558;BME280;7880;50.110;9.372;2023-04-02T18:52:33;3.7410175413126128;;;3.437;100.0
15558;BME280;7880;50.110;9.372;2023-04-02T18:57:44;3.665388915181393;;;3.5;100.0
15558;BME280;7880;50.110;9.372;2023-04-02T19:02:46;3.579676551395096;;;3.375;100.0
15558;BME280;7880;50.110;9.372;2023-04-02T19:07:48;3.836813895084197;;;3.625;100.0
15558;BME280;7880;50.110;9.372;2023-04-02T19:12:53;3.806562403595308;;;3.625;100.0
15558;BME280;7880;50.110;9.372;2023-04-02T19:18:09;3.483880479639629;;;3.437;100.0
15558;BME280;7880;50.110;9.372;2023-04-02T19:23:13;3.6905984499491753;;;3.437;100.0
15558;BME280;7880;50.110;9.372;2023-04-02T19:28:12;3.897316909494111;;;3.687;100.0
15558;BME280;7880;50.110;9.372;2023-04-02T19:33:32;3.816646232927451;;;3.625;100.0
15558;BME280;7880;50.110;9.372;2023-04-02T19:38:37;3.927568432415137;;;3.75;100.0
15558;BME280;7880;50.110;9.372;2023-04-02T19:43:25;3.5746346502623054;;;3.375;100.0
15558;BME280;7880;50.110;9.372;2023-04-02T19:48:34;3.635137483064318;;;3.437;100.0
15558;BME280;7880;50.110;9.372;2023-04-02T19:53:33;3.8015204893657937;;;3.625;100.0
15558;BME280;7880;50.110;9.372;2023-04-02T19:58:36;3.5595089486101643;;;3.437;100.0
15558;BME280;7880;50.110;9.372;2023-04-02T20:03:41;3.493964271718869;;;3.312;100.0
15558;BME280;7880;50.110;9.372;2023-04-02T20:08:44;3.625053674686933;;;3.375;100.0
15558;BME280;7880;50.110;9.372;2023-04-02T20:13:50;3.362875065492699;;;3.312;100.0
15558;BME280;7880;50.110;9.372;2023-04-02T20:18:53;3.38808451294899;;;3.25;100.0
15558;BME280;7880;50.110;9.372;2023-04-02T20:23:57;3.3275818512775004;;;3.125;100.0
15558;BME280;7880;50.110;9.372;2023-04-02T20:29:01;3.48892237553373;;;3.25;100.0
15558;BME280;7880;50.110;9.372;2023-04-02T20:34:08;3.020027302444214;;;3.0;100.0
15558;BME280;7880;50.110;9.372;2023-04-02T20:39:11;3.1511159941146616;;;3.0;100.0
15558;BME280;7880;50.110;9.372;2023-04-02T20:44:21;3.2620373484271115;;;3.062;100.0
15558;BME280;7880;50.110;9.372;2023-04-02T20:49:19;3.3074143067002297;;;3.125;100.0
15558;BME280;7880;50.110;9.372;2023-04-02T20:54:25;3.241869818983832;;;3.125;100.0
15558;BME280;7880;50.110;9.372;2023-04-02T20:59:29;3.181367258593673;;;3.062;100.0
15558;BME280;7880;50.110;9.372;2023-04-02T21:04:35;3.3527912885474507;;;3.187;100.0
15558;BME280;7880;50.110;9.372;2023-04-02T21:09:36;3.3578331768745557;;;3.25;100.0
15558;BME280;7880;50.110;9.372;2023-04-02T21:14:45;3.31245619240799;;;3.125;100.0
15558;BME280;7880;50.110;9.372;2023-04-02T21:19:44;3.408252076152712;;;3.25;100.0
15558;BME280;7880;50.110;9.372;2023-04-02T21:24:50;3.3729588436021003;;;3.25;100.0
15558;BME280;7880;50.110;9.372;2023-04-02T21:29:53;3.201534774067113;;;3.125;100.0
15558;BME280;7880;50.110;9.372;2023-04-02T21:34:58;3.2116185335500633;;;3.062;100.0
15558;BME280;7880;50.110;9.372;2023-04-02T21:40:02;3.0906134965887757;;;2.875;100.0
15558;BME280;7880;50.110;9.372;2023-04-02T21:45:06;3.1864091370254757;;;3.0;100.0
15558;BME280;7880;50.110;9.372;2023-04-02T21:50:10;3.2267441749572754;;;3.0;100.0
15558;BME280;7880;50.110;9.372;2023-04-02T21:55:14;3.181367258593673;;;3.0;100.0
15558;BME280;7880;50.110;9.372;2023-04-02T22:00:19;3.181367258593673;;;3.0;100.0
15558;BME280;7880;50.110;9.372;2023-04-02T22:05:28;3.3427075127663555;;;3.187;100.0
15558;BME280;7880;50.110;9.372;2023-04-02T22:10:28;3.2116185335500633;;;3.125;100.0
15558;BME280;7880;50.110;9.372;2023-04-02T22:15:10;3.2620373484271115;;;3.125;100.0
15558;BME280;7880;50.110;9.372;2023-04-02T22:20:10;3.2166604137280954;;;3.062;100.0
15558;BME280;7880;50.110;9.372;2023-04-02T22:25:13;3.0654041349887846;;;2.875;100.0
15558;BME280;7880;50.110;9.372;2023-04-02T22:30:19;3.3427075127663555;;;3.062;100.0
15558;BME280;7880;50.110;9.372;2023-04-02T22:35:23;3.3780007330933586;;;3.187;100.0
15558;BME280;7880;50.110;9.372;2023-04-02T22:40:29;3.3729588436021003;;;3.25;100.0
15558;BME280;7880;50.110;9.372;2023-04-02T22:45:31;3.403210184915224;;;3.25;100.0
15558;BME280;7880;50.110;9.372;2023-04-02T22:50:34;3.418335859500803;;;3.25;100.0
15558;BME280;7880;50.110;9.372;2023-04-02T22:55:38;3.2469117009080946;;;3.125;100.0
15558;BME280;7880;50.110;9.372;2023-04-02T23:00:43;3.297330536157824;;;3.062;100.0
15558;BME280;7880;50.110;9.372;2023-04-02T23:05:57;3.287246766779572;;;3.125;100.0
15558;BME280;7880;50.110;9.372;2023-04-02T23:10:59;3.231786056008423;;;3.062;100.0
15558;BME280;7880;50.110;9.372;2023-04-02T23:15:59;3.3780007330933586;;;3.187;100.0
15558;BME280;7880;50.110;9.372;2023-04-02T23:21:02;3.256995465629734;;;3.125;100.0
15558;BME280;7880;50.110;9.372;2023-04-02T23:26:09;3.1914510157483162;;;3.062;100.0
15558;BME280;7880;50.110;9.372;2023-04-02T23:31:12;3.282204882527003;;;3.125;100.0
15558;BME280;7880;50.110;9.372;2023-04-02T23:36:17;3.362875065492699;;;3.187;100.0
15558;BME280;7880;50.110;9.372;2023-04-02T23:41:17;3.3023724212835077;;;3.187;100.0
15558;BME280;7880;50.110;9.372;2023-04-02T23:46:21;3.297330536157824;;;3.125;100.0
15558;BME280;7880;50.110;9.372;2023-04-02T23:51:27;3.251953583123395;;;3.125;100.0
15558;BME280;7880;50.110;9.372;2023-04-02T23:56:31;3.0603622635419017;;;2.937;100.0
